Time;durP1;ratioP1;P1;durP2;ratioP2;P2;SDS_P1;SDS_P2;PMS_P1;PMS_P2;Temp;Humidity;BMP_temperature;BMP_pressure;BME280_temperature;BME280_humidity;BME280_pressure;Samples;Min_cycle;Max_cycle;Signal;HPM_P1;HPM_P2
2022/09/16 00:01:18;;;;;;;2.60;1.05;;;;;;;;;;5061565;28;20056;-74
2022/09/16 00:03:46;;;;;;;5.57;1.10;;;;;;;;;;5064900;28;20034;-74
2022/09/16 00:06:18;;;;;;;4.38;1.00;;;;;;;;;;5068349;28;20049;-74
2022/09/16 00:08:45;;;;;;;5.30;1.38;;;;;;;;;;5066746;28;20052;-74
2022/09/16 00:11:12;;;;;;;4.47;0.90;;;;;;;;;;5069219;28;20053;-74
2022/09/16 00:13:40;;;;;;;1.45;0.75;;;;;;;;;;5070984;28;21197;-75
2022/09/16 00:16:12;;;;;;;2.65;1.30;;;;;;;;;;5057265;28;20046;-74
2022/09/16 00:18:39;;;;;;;3.28;1.05;;;;;;;;;;5068815;28;20047;-74
2022/09/16 00:21:08;;;;;;;4.47;1.05;;;;;;;;;;5062046;28;20499;-74
2022/09/16 00:23:35;;;;;;;2.85;1.10;;;;;;;;;;5073015;28;20119;-74
2022/09/16 00:26:03;;;;;;;4.80;1.27;;;;;;;;;;5062834;28;20055;-74
2022/09/16 00:28:31;;;;;;;0.98;0.65;;;;;;;;;;5077963;28;20056;-74
2022/09/16 00:30:59;;;;;;;6.13;1.08;;;;;;;;;;5072889;28;20904;-74
2022/09/16 00:33:27;;;;;;;1.27;0.88;;;;;;;;;;5065033;28;20045;-74
2022/09/16 00:36:11;;;;;;;4.22;1.17;;;;;;;;;;5068562;28;20049;-74
2022/09/16 00:38:39;;;;;;;8.30;1.00;;;;;;;;;;5058732;28;20080;-75
2022/09/16 00:41:06;;;;;;;5.60;1.30;;;;;;;;;;5063262;28;20140;-74
2022/09/16 00:44:06;;;;;;;2.63;0.90;;;;;;;;;;5072107;28;20106;-74
2022/09/16 00:46:38;;;;;;;7.95;0.95;;;;;;;;;;5053042;28;20053;-74
2022/09/16 00:49:18;;;;;;;3.00;0.88;;;;;;;;;;5070773;28;20510;-75
2022/09/16 00:51:46;;;;;;;4.45;1.00;;;;;;;;;;5060942;28;20909;-74
2022/09/16 00:54:14;;;;;;;4.18;0.93;;;;;;;;;;5056480;28;20938;-74
2022/09/16 00:56:43;;;;;;;5.25;1.20;;;;;;;;;;5067686;28;20048;-74
2022/09/16 00:59:14;;;;;;;3.20;1.17;;;;;;;;;;5064989;28;20077;-74
2022/09/16 01:01:43;;;;;;;5.38;1.25;;;;;;;;;;5069553;28;20854;-75
2022/09/16 01:04:17;;;;;;;6.20;1.00;;;;;;;;;;5061889;28;20045;-75
2022/09/16 01:06:44;;;;;;;5.97;1.10;;;;;;;;;;5067959;28;20049;-74
2022/09/16 01:09:12;;;;;;;6.93;1.27;;;;;;;;;;5068040;28;20114;-75
2022/09/16 01:11:39;;;;;;;5.45;1.30;;;;;;;;;;5075337;28;20896;-76
2022/09/16 01:17:01;;;;;;;4.40;1.23;;;;;;;;;;5070520;28;20049;-75
2022/09/16 01:19:35;;;;;;;3.20;1.13;;;;;;;;;;5079100;28;20087;-74
2022/09/16 01:22:02;;;;;;;;;;;;;;;;;;5072661;28;20056;-76
2022/09/16 01:24:47;;;;;;;1.85;1.05;;;;;;;;;;5067289;28;45084;-76
2022/09/16 01:27:21;;;;;;;4.80;1.10;;;;;;;;;;5075953;28;20049;-75
2022/09/16 01:29:48;;;;;;;3.67;1.00;;;;;;;;;;5068087;28;20049;-76
2022/09/16 01:32:27;;;;;;;2.25;0.95;;;;;;;;;;5069164;28;20911;-75
2022/09/16 01:34:56;;;;;;;9.13;1.52;;;;;;;;;;5089519;28;20049;-77
2022/09/16 01:37:23;;;;;;;7.75;1.20;;;;;;;;;;5072249;28;20099;-76
2022/09/16 01:39:59;;;;;;;3.58;1.05;;;;;;;;;;5070020;28;20049;-76
2022/09/16 01:42:40;;;;;;;6.30;1.17;;;;;;;;;;5072338;28;20119;-76
2022/09/16 01:45:14;;;;;;;4.82;1.13;;;;;;;;;;5065956;28;20103;-76
2022/09/16 01:47:41;;;;;;;;;;;;;;;;;;5070674;28;20060;-76
2022/09/16 01:50:15;;;;;;;9.73;1.30;;;;;;;;;;5064914;28;44065;-76
2022/09/16 01:52:45;;;;;;;3.58;1.02;;;;;;;;;;5067359;28;20053;-76
2022/09/16 01:55:29;;;;;;;1.83;0.75;;;;;;;;;;5079801;28;20041;-76
2022/09/16 01:58:00;;;;;;;7.30;1.08;;;;;;;;;;5068918;28;20045;-75
2022/09/16 02:00:27;;;;;;;5.18;1.20;;;;;;;;;;5065815;28;20099;-75
2022/09/16 02:02:58;;;;;;;5.88;1.08;;;;;;;;;;5076241;28;20130;-75
2022/09/16 02:05:30;;;;;;;2.40;1.02;;;;;;;;;;5066205;28;20053;-76
2022/09/16 02:08:04;;;;;;;5.65;0.93;;;;;;;;;;5069782;28;20053;-75
2022/09/16 02:10:43;;;;;;;10.07;1.13;;;;;;;;;;5060791;28;20057;-75
2022/09/16 02:13:14;;;;;;;6.22;1.00;;;;;;;;;;5072878;28;20063;-75
2022/09/16 02:15:42;;;;;;;1.55;0.80;;;;;;;;;;5070762;28;20052;-76
2022/09/16 02:18:11;;;;;;;2.72;1.00;;;;;;;;;;5071087;28;20115;-76
2022/09/16 02:20:44;;;;;;;9.27;1.25;;;;;;;;;;5068674;28;20053;-76
2022/09/16 02:23:15;;;;;;;7.25;0.80;;;;;;;;;;5076925;28;20110;-76
2022/09/16 02:25:44;;;;;;;7.07;1.08;;;;;;;;;;5077415;28;20049;-76
2022/09/16 02:28:13;;;;;;;3.50;1.05;;;;;;;;;;5075112;28;20118;-76
2022/09/16 02:30:45;;;;;;;7.50;1.35;;;;;;;;;;5075138;28;20114;-76
2022/09/16 02:33:13;;;;;;;4.68;1.13;;;;;;;;;;5067733;28;20126;-75
2022/09/16 02:35:44;;;;;;;4.32;1.23;;;;;;;;;;5069508;28;20053;-76
2022/09/16 02:38:14;;;;;;;4.70;1.00;;;;;;;;;;5077956;28;20086;-75
2022/09/16 02:40:48;;;;;;;6.13;1.10;;;;;;;;;;5069563;28;20075;-76
2022/09/16 02:43:15;;;;;;;3.40;0.93;;;;;;;;;;5074246;28;20914;-76
2022/09/16 02:45:42;;;;;;;6.18;1.23;;;;;;;;;;5066104;28;20107;-75
2022/09/16 02:48:14;;;;;;;4.13;1.05;;;;;;;;;;5075899;28;20049;-75
2022/09/16 02:50:47;;;;;;;3.83;1.10;;;;;;;;;;5075389;28;20056;-75
2022/09/16 02:53:26;;;;;;;8.53;1.30;;;;;;;;;;5065625;28;20056;-74
2022/09/16 02:55:55;;;;;;;4.50;1.10;;;;;;;;;;5076989;28;20048;-76
2022/09/16 02:58:23;;;;;;;5.25;1.00;;;;;;;;;;5070274;28;20057;-75
2022/09/16 03:00:52;;;;;;;4.72;1.50;;;;;;;;;;5081131;28;20107;-75
2022/09/16 03:03:19;;;;;;;2.10;0.90;;;;;;;;;;5076083;28;20502;-76
2022/09/16 03:06:09;;;;;;;2.50;1.08;;;;;;;;;;5084696;28;20052;-76
2022/09/16 03:08:36;;;;;;;4.20;1.13;;;;;;;;;;5074146;28;20057;-76
2022/09/16 03:11:24;;;;;;;13.02;1.40;;;;;;;;;;5078029;28;20044;-76
2022/09/16 03:14:19;;;;;;;5.75;1.27;;;;;;;;;;5074961;28;20139;-78
2022/09/16 03:17:05;;;;;;;8.38;1.15;;;;;;;;;;5077389;28;20087;-76
2022/09/16 03:19:50;;;;;;;3.88;1.20;;;;;;;;;;5067507;28;20110;-76
2022/09/16 03:22:21;;;;;;;3.25;0.95;;;;;;;;;;5075105;28;20060;-76
2022/09/16 03:24:58;;;;;;;6.70;1.27;;;;;;;;;;5076762;28;20584;-78
2022/09/16 03:27:30;;;;;;;3.75;1.15;;;;;;;;;;5074907;28;20103;-76
2022/09/16 03:30:08;;;;;;;2.08;0.93;;;;;;;;;;5075512;28;20060;-76
2022/09/16 03:32:48;;;;;;;1.95;1.20;;;;;;;;;;5077099;28;20048;-76
2022/09/16 03:35:21;;;;;;;4.55;1.25;;;;;;;;;;5079431;28;20999;-76
2022/09/16 03:37:49;;;;;;;3.10;1.05;;;;;;;;;;5066917;28;20195;-76
2022/09/16 03:40:18;;;;;;;4.88;1.00;;;;;;;;;;5070859;28;20053;-76
2022/09/16 03:42:45;;;;;;;8.00;1.40;;;;;;;;;;5077201;28;20091;-77
2022/09/16 03:45:15;;;;;;;17.88;1.98;;;;;;;;;;5070760;28;20049;-76
2022/09/16 03:47:43;;;;;;;6.47;1.30;;;;;;;;;;5074935;28;20053;-76
2022/09/16 03:50:10;;;;;;;5.18;1.27;;;;;;;;;;5073636;28;20055;-75
2022/09/16 03:52:38;;;;;;;4.78;1.27;;;;;;;;;;5074861;28;20110;-76
2022/09/16 03:55:06;;;;;;;1.15;0.98;;;;;;;;;;5076798;28;20114;-75
2022/09/16 03:57:33;;;;;;;4.43;1.00;;;;;;;;;;5076925;28;20057;-77
2022/09/16 04:00:00;;;;;;;7.70;1.20;;;;;;;;;;5087471;28;20140;-77
2022/09/16 04:02:27;;;;;;;7.10;1.23;;;;;;;;;;5070484;28;20052;-75
2022/09/16 04:04:55;;;;;;;7.65;1.33;;;;;;;;;;5074686;28;20885;-76
2022/09/16 04:07:22;;;;;;;5.00;1.27;;;;;;;;;;5078599;28;20056;-76
2022/09/16 04:09:49;;;;;;;2.83;0.95;;;;;;;;;;5070162;28;20054;-77
2022/09/16 04:12:16;;;;;;;5.65;1.08;;;;;;;;;;5074726;28;20052;-76
2022/09/16 04:14:44;;;;;;;3.63;1.27;;;;;;;;;;5073968;28;20145;-77
2022/09/16 04:17:11;;;;;;;5.20;1.00;;;;;;;;;;5071564;28;20103;-76
2022/09/16 04:19:38;;;;;;;5.82;1.05;;;;;;;;;;5069905;28;20052;-76
2022/09/16 04:22:05;;;;;;;4.15;1.48;;;;;;;;;;5076180;28;20095;-76
2022/09/16 04:24:32;;;;;;;7.32;1.15;;;;;;;;;;5067198;28;20053;-75
2022/09/16 04:26:59;;;;;;;2.38;1.00;;;;;;;;;;5068710;28;20107;-76
2022/09/16 04:29:27;;;;;;;4.30;1.23;;;;;;;;;;5070691;28;20049;-76
2022/09/16 04:31:54;;;;;;;1.95;1.20;;;;;;;;;;5072907;28;20095;-76
2022/09/16 04:34:21;;;;;;;2.42;0.90;;;;;;;;;;5073305;28;20049;-77
2022/09/16 04:36:48;;;;;;;3.72;0.95;;;;;;;;;;5076087;28;20109;-75
2022/09/16 04:39:15;;;;;;;4.10;0.90;;;;;;;;;;5069275;28;20681;-75
2022/09/16 04:41:42;;;;;;;1.35;0.90;;;;;;;;;;5066546;28;20087;-77
2022/09/16 04:44:10;;;;;;;4.63;0.80;;;;;;;;;;5067217;28;20053;-77
2022/09/16 04:46:37;;;;;;;9.38;1.20;;;;;;;;;;5077013;28;20053;-75
2022/09/16 04:49:04;;;;;;;1.02;0.70;;;;;;;;;;5067306;28;20582;-76
2022/09/16 04:51:31;;;;;;;4.90;1.17;;;;;;;;;;5071067;28;20052;-76
2022/09/16 04:53:59;;;;;;;6.60;1.05;;;;;;;;;;5073882;28;20053;-76
2022/09/16 04:56:28;;;;;;;1.13;0.80;;;;;;;;;;5084156;28;20063;-77
2022/09/16 04:58:58;;;;;;;5.88;1.08;;;;;;;;;;5070621;28;20049;-76
2022/09/16 05:01:26;;;;;;;2.45;1.00;;;;;;;;;;5072054;28;20061;-75
2022/09/16 05:03:55;;;;;;;3.92;0.82;;;;;;;;;;5072812;28;20653;-76
2022/09/16 05:06:27;;;;;;;3.55;0.93;;;;;;;;;;5081149;28;20058;-76
2022/09/16 05:08:54;;;;;;;4.80;1.13;;;;;;;;;;5079658;28;20076;-76
2022/09/16 05:11:26;;;;;;;2.55;1.13;;;;;;;;;;5072450;28;20104;-76
2022/09/16 05:13:54;;;;;;;4.70;1.20;;;;;;;;;;5076860;28;20052;-76
2022/09/16 05:16:22;;;;;;;5.57;1.30;;;;;;;;;;5070765;28;20042;-77
2022/09/16 05:18:51;;;;;;;5.40;0.90;;;;;;;;;;5069429;28;20056;-77
2022/09/16 05:21:19;;;;;;;2.58;1.33;;;;;;;;;;5060177;28;20147;-76
2022/09/16 05:23:47;;;;;;;9.18;1.20;;;;;;;;;;5077419;28;20057;-76
2022/09/16 05:26:14;;;;;;;1.10;0.90;;;;;;;;;;5072610;28;20046;-75
2022/09/16 05:28:42;;;;;;;3.78;1.02;;;;;;;;;;5069033;28;20049;-76
2022/09/16 05:31:14;;;;;;;3.17;1.30;;;;;;;;;;5074862;28;20454;-75
2022/09/16 05:33:42;;;;;;;7.72;1.20;;;;;;;;;;5072838;28;20045;-76
2022/09/16 05:36:13;;;;;;;1.55;1.00;;;;;;;;;;5076476;28;20056;-75
2022/09/16 05:38:40;;;;;;;5.07;1.10;;;;;;;;;;5078588;28;20056;-76
2022/09/16 05:41:07;;;;;;;4.93;1.20;;;;;;;;;;5068381;28;20049;-76
2022/09/16 05:43:34;;;;;;;4.43;1.10;;;;;;;;;;5072458;28;20056;-76
2022/09/16 05:46:02;;;;;;;10.23;1.35;;;;;;;;;;5068215;28;20077;-76
2022/09/16 05:48:29;;;;;;;5.43;1.02;;;;;;;;;;5073590;28;20131;-76
2022/09/16 05:50:58;;;;;;;9.90;1.50;;;;;;;;;;5073371;28;20087;-76
2022/09/16 05:53:26;;;;;;;4.63;0.98;;;;;;;;;;5075543;28;20706;-77
2022/09/16 05:55:55;;;;;;;7.43;1.20;;;;;;;;;;5078424;28;20136;-76
2022/09/16 05:58:22;;;;;;;5.22;1.23;;;;;;;;;;5070459;28;20053;-76
2022/09/16 06:00:49;;;;;;;4.57;1.48;;;;;;;;;;5070547;28;20847;-75
2022/09/16 06:03:17;;;;;;;4.90;1.10;;;;;;;;;;5080015;28;20477;-76
2022/09/16 06:05:44;;;;;;;4.90;1.25;;;;;;;;;;5070969;28;20045;-76
2022/09/16 06:08:12;;;;;;;7.07;1.17;;;;;;;;;;5069313;28;20052;-75
2022/09/16 06:10:39;;;;;;;4.45;1.30;;;;;;;;;;5063089;28;20060;-76
2022/09/16 06:13:06;;;;;;;7.43;1.35;;;;;;;;;;5070103;28;20053;-75
2022/09/16 06:15:34;;;;;;;7.00;1.15;;;;;;;;;;5061360;28;20087;-75
2022/09/16 06:18:01;;;;;;;4.88;1.23;;;;;;;;;;5071336;28;20040;-77
2022/09/16 06:20:32;;;;;;;11.23;1.38;;;;;;;;;;5076342;28;20049;-76
2022/09/16 06:22:59;;;;;;;2.15;1.02;;;;;;;;;;5069437;28;20774;-75
2022/09/16 06:25:26;;;;;;;4.38;1.65;;;;;;;;;;5076462;28;20061;-76
2022/09/16 06:27:53;;;;;;;1.63;1.10;;;;;;;;;;5072079;28;20053;-76
2022/09/16 06:30:20;;;;;;;5.57;1.40;;;;;;;;;;5088583;28;20056;-75
2022/09/16 06:32:48;;;;;;;2.80;1.10;;;;;;;;;;5068730;28;20492;-76
2022/09/16 06:35:15;;;;;;;7.78;1.38;;;;;;;;;;5068948;28;20750;-76
2022/09/16 06:37:42;;;;;;;4.13;1.20;;;;;;;;;;5073275;28;20053;-75
2022/09/16 06:40:09;;;;;;;11.23;1.70;;;;;;;;;;5072607;28;20045;-75
2022/09/16 06:42:37;;;;;;;13.05;2.08;;;;;;;;;;5062800;28;20157;-76
2022/09/16 06:45:05;;;;;;;3.35;0.90;;;;;;;;;;5077634;28;20076;-76
2022/09/16 06:47:32;;;;;;;3.63;1.15;;;;;;;;;;5068127;28;20135;-75
2022/09/16 06:49:59;;;;;;;5.32;1.40;;;;;;;;;;5070186;28;20053;-75
2022/09/16 06:52:27;;;;;;;4.80;1.27;;;;;;;;;;5064792;28;20057;-75
2022/09/16 06:54:54;;;;;;;5.18;1.30;;;;;;;;;;5067997;28;20049;-75
2022/09/16 06:57:22;;;;;;;2.28;1.10;;;;;;;;;;5062887;28;20053;-75
2022/09/16 06:59:50;;;;;;;4.22;1.55;;;;;;;;;;5089507;28;20132;-75
2022/09/16 07:02:17;;;;;;;5.07;1.33;;;;;;;;;;5069204;28;20099;-76
2022/09/16 07:04:45;;;;;;;4.82;1.30;;;;;;;;;;5075451;28;20048;-75
2022/09/16 07:07:12;;;;;;;7.30;1.52;;;;;;;;;;5069521;28;20064;-76
2022/09/16 07:09:40;;;;;;;5.47;1.20;;;;;;;;;;5070021;28;20088;-76
2022/09/16 07:12:07;;;;;;;2.70;1.00;;;;;;;;;;5068134;28;20107;-76
2022/09/16 07:14:34;;;;;;;6.97;1.27;;;;;;;;;;5085576;28;20103;-76
2022/09/16 07:17:01;;;;;;;3.45;1.15;;;;;;;;;;5073279;28;20084;-76
2022/09/16 07:19:29;;;;;;;5.20;1.10;;;;;;;;;;5071896;28;20056;-76
2022/09/16 07:21:56;;;;;;;6.93;1.25;;;;;;;;;;5066910;28;20085;-76
2022/09/16 07:24:23;;;;;;;6.30;1.40;;;;;;;;;;5065763;28;20065;-76
2022/09/16 07:26:50;;;;;;;5.20;1.33;;;;;;;;;;5069141;28;20099;-76
2022/09/16 07:29:19;;;;;;;6.55;1.70;;;;;;;;;;5068568;28;20048;-76
2022/09/16 07:31:47;;;;;;;6.05;1.13;;;;;;;;;;5066478;28;20131;-75
2022/09/16 07:34:14;;;;;;;2.97;0.88;;;;;;;;;;5064645;28;20107;-75
2022/09/16 07:36:45;;;;;;;6.80;1.50;;;;;;;;;;5066437;28;20060;-75
2022/09/16 07:39:13;;;;;;;2.70;1.17;;;;;;;;;;5065169;28;20100;-76
2022/09/16 07:41:42;;;;;;;4.80;1.38;;;;;;;;;;5076211;28;20044;-76
2022/09/16 07:44:11;;;;;;;3.47;1.10;;;;;;;;;;5068645;28;20767;-75
2022/09/16 07:46:38;;;;;;;2.35;0.93;;;;;;;;;;5071326;28;20846;-76
2022/09/16 07:49:07;;;;;;;5.90;1.13;;;;;;;;;;5067256;28;20119;-76
2022/09/16 07:51:35;;;;;;;2.65;0.95;;;;;;;;;;5069281;28;20077;-75
2022/09/16 07:54:03;;;;;;;3.80;1.35;;;;;;;;;;5067315;28;20049;-75
2022/09/16 07:56:34;;;;;;;3.78;0.90;;;;;;;;;;5071633;28;20052;-74
2022/09/16 07:59:02;;;;;;;7.03;1.10;;;;;;;;;;5071738;28;20722;-77
2022/09/16 08:01:30;;;;;;;5.88;0.95;;;;;;;;;;5073925;28;20081;-75
2022/09/16 08:03:58;;;;;;;8.80;1.30;;;;;;;;;;5081332;28;20053;-75
2022/09/16 08:06:26;;;;;;;6.15;0.88;;;;;;;;;;5073798;28;20041;-75
2022/09/16 08:08:55;;;;;;;4.70;1.15;;;;;;;;;;5079153;28;20103;-76
2022/09/16 08:11:36;;;;;;;2.83;0.67;;;;;;;;;;5080973;28;20081;-74
2022/09/16 08:14:03;;;;;;;4.40;0.93;;;;;;;;;;5083738;28;20228;-75
2022/09/16 08:16:30;;;;;;;5.18;0.82;;;;;;;;;;5080982;28;20045;-75
2022/09/16 08:18:58;;;;;;;3.35;1.00;;;;;;;;;;5077416;28;20041;-75
2022/09/16 08:21:26;;;;;;;3.88;0.55;;;;;;;;;;5075591;28;20053;-75
2022/09/16 08:23:54;;;;;;;3.10;0.68;;;;;;;;;;5077403;28;20107;-75
2022/09/16 08:26:21;;;;;;;1.33;0.68;;;;;;;;;;5081215;28;20094;-76
2022/09/16 08:28:49;;;;;;;1.60;0.70;;;;;;;;;;5060048;28;20044;-75
2022/09/16 08:31:38;;;;;;;2.88;0.73;;;;;;;;;;5058886;28;20889;-75
2022/09/16 08:34:05;;;;;;;3.35;0.77;;;;;;;;;;5064957;28;20137;-75
2022/09/16 08:36:33;;;;;;;2.50;0.80;;;;;;;;;;5065078;28;20045;-75
2022/09/16 08:39:00;;;;;;;1.88;0.68;;;;;;;;;;5065349;28;20091;-75
2022/09/16 08:41:46;;;;;;;2.38;0.70;;;;;;;;;;5060958;28;20049;-76
2022/09/16 08:44:13;;;;;;;4.32;0.90;;;;;;;;;;5060448;28;20056;-75
2022/09/16 08:46:43;;;;;;;5.20;0.88;;;;;;;;;;5063541;28;20056;-75
2022/09/16 08:49:25;;;;;;;1.00;0.63;;;;;;;;;;5061741;28;20053;-74
2022/09/16 08:51:55;;;;;;;2.47;1.20;;;;;;;;;;5063934;28;20054;-75
2022/09/16 08:54:27;;;;;;;2.38;0.70;;;;;;;;;;5062316;28;20049;-76
2022/09/16 08:56:57;;;;;;;2.17;0.73;;;;;;;;;;5063030;28;20056;-75
2022/09/16 08:59:27;;;;;;;2.58;0.70;;;;;;;;;;5061586;28;20099;-75
2022/09/16 09:02:08;;;;;;;6.13;1.08;;;;;;;;;;5062132;28;20092;-75
2022/09/16 09:04:36;;;;;;;1.35;0.52;;;;;;;;;;5060394;28;20156;-75
2022/09/16 09:07:19;;;;;;;1.90;0.60;;;;;;;;;;5067121;28;20056;-75
2022/09/16 09:09:58;;;;;;;3.30;0.90;;;;;;;;;;5063121;28;20045;-76
2022/09/16 09:12:45;;;;;;;3.13;0.73;;;;;;;;;;5061560;28;20076;-74
2022/09/16 09:15:27;;;;;;;2.20;0.68;;;;;;;;;;5060930;28;20025;-74
2022/09/16 09:18:06;;;;;;;7.18;1.00;;;;;;;;;;5064238;28;20053;-75
2022/09/16 09:20:34;;;;;;;2.45;0.93;;;;;;;;;;5063956;28;21256;-75
2022/09/16 09:23:27;;;;;;;4.32;1.08;;;;;;;;;;5063623;28;20139;-75
2022/09/16 09:25:58;;;;;;;8.63;1.17;;;;;;;;;;5077828;28;20041;-74
2022/09/16 09:28:28;;;;;;;5.20;0.70;;;;;;;;;;5067099;28;20052;-75
2022/09/16 09:31:00;;;;;;;2.45;0.70;;;;;;;;;;5063110;28;20095;-75
2022/09/16 09:33:35;;;;;;;6.80;1.02;;;;;;;;;;5076623;28;20156;-75
2022/09/16 09:36:38;;;;;;;5.22;1.00;;;;;;;;;;5068356;28;20050;-75
2022/09/16 09:39:18;;;;;;;5.53;0.90;;;;;;;;;;5037631;28;20045;-76
2022/09/16 09:42:06;;;;;;;5.65;0.70;;;;;;;;;;5047531;28;20060;-75
2022/09/16 09:44:48;;;;;;;1.90;0.65;;;;;;;;;;5037932;28;20060;-74
2022/09/16 09:47:21;;;;;;;4.35;0.93;;;;;;;;;;5039144;28;20037;-75
2022/09/16 09:49:55;;;;;;;7.68;0.85;;;;;;;;;;5037710;28;20052;-75
2022/09/16 09:52:28;;;;;;;2.17;0.70;;;;;;;;;;5038409;28;20057;-74
2022/09/16 09:54:55;;;;;;;3.08;0.70;;;;;;;;;;5038791;28;20133;-74
2022/09/16 09:57:37;;;;;;;2.38;0.70;;;;;;;;;;5037078;28;20045;-76
2022/09/16 10:00:17;;;;;;;4.93;1.13;;;;;;;;;;5038470;28;20076;-74
2022/09/16 10:02:45;;;;;;;5.47;0.90;;;;;;;;;;5041335;28;20081;-74
2022/09/16 10:05:25;;;;;;;2.10;0.68;;;;;;;;;;5042358;28;20053;-75
2022/09/16 10:07:55;;;;;;;3.15;0.80;;;;;;;;;;5036305;28;20084;-73
2022/09/16 10:10:24;;;;;;;0.57;0.50;;;;;;;;;;5042251;28;20055;-76
2022/09/16 10:12:51;;;;;;;2.08;0.90;;;;;;;;;;5038719;28;20053;-75
2022/09/16 10:15:21;;;;;;;2.00;0.70;;;;;;;;;;5051221;28;20034;-74
2022/09/16 10:17:49;;;;;;;3.92;0.63;;;;;;;;;;5068468;28;20033;-75
2022/09/16 10:20:31;;;;;;;1.42;0.57;;;;;;;;;;5061481;28;20049;-74
2022/09/16 10:23:04;;;;;;;1.67;0.65;;;;;;;;;;5061195;28;20092;-75
2022/09/16 10:25:31;;;;;;;;;;;;;;;;;;5060460;28;20049;-74
2022/09/16 10:28:00;;;;;;;3.20;0.70;;;;;;;;;;5061716;28;43379;-74
2022/09/16 10:30:51;;;;;;;3.50;0.60;;;;;;;;;;5060526;28;20059;-74
2022/09/16 10:33:21;;;;;;;6.70;0.93;;;;;;;;;;5056858;28;20049;-74
2022/09/16 10:35:56;;;;;;;7.25;0.80;;;;;;;;;;5060873;28;20049;-76
2022/09/16 10:38:27;;;;;;;1.98;0.57;;;;;;;;;;5074527;28;20040;-75
2022/09/16 10:40:56;;;;;;;2.08;0.65;;;;;;;;;;5059830;28;20057;-76
2022/09/16 10:43:24;;;;;;;5.35;0.88;;;;;;;;;;5056868;28;20523;-77
2022/09/16 10:45:53;;;;;;;6.40;0.73;;;;;;;;;;5060090;28;20052;-75
2022/09/16 10:48:22;;;;;;;5.68;0.75;;;;;;;;;;5072120;28;20140;-76
2022/09/16 10:50:53;;;;;;;3.22;0.60;;;;;;;;;;5068744;28;20049;-76
2022/09/16 10:53:22;;;;;;;6.00;0.82;;;;;;;;;;5071072;28;20103;-76
2022/09/16 10:55:57;;;;;;;4.03;1.13;;;;;;;;;;5076685;28;20055;-76
2022/09/16 10:58:24;;;;;;;4.70;0.80;;;;;;;;;;5065614;28;20054;-75
2022/09/16 11:00:58;;;;;;;1.45;0.50;;;;;;;;;;5056574;28;20081;-75
2022/09/16 11:03:35;;;;;;;1.75;0.80;;;;;;;;;;5058866;28;20053;-75
2022/09/16 11:06:15;;;;;;;2.78;0.98;;;;;;;;;;5054946;28;20045;-75
2022/09/16 11:08:45;;;;;;;4.13;0.68;;;;;;;;;;5058775;28;20083;-75
2022/09/16 11:11:13;;;;;;;6.90;0.90;;;;;;;;;;5061483;28;20052;-76
2022/09/16 11:13:48;;;;;;;3.30;0.95;;;;;;;;;;5059888;28;20045;-75
2022/09/16 11:16:21;;;;;;;2.28;1.13;;;;;;;;;;5063094;28;21253;-75
2022/09/16 11:18:55;;;;;;;7.43;0.80;;;;;;;;;;5061841;28;20987;-75
2022/09/16 11:21:38;;;;;;;1.42;0.80;;;;;;;;;;5063136;28;20048;-76
2022/09/16 11:24:12;;;;;;;5.88;0.95;;;;;;;;;;5061405;28;20076;-76
2022/09/16 11:26:54;;;;;;;3.58;0.77;;;;;;;;;;5063602;28;20107;-75
2022/09/16 11:29:21;;;;;;;1.95;0.63;;;;;;;;;;5061618;28;20123;-76
2022/09/16 11:32:16;;;;;;;2.58;0.73;;;;;;;;;;5061581;28;20053;-76
2022/09/16 11:35:02;;;;;;;5.65;0.85;;;;;;;;;;5064799;28;20049;-75
2022/09/16 11:37:48;;;;;;;4.85;0.80;;;;;;;;;;5060407;28;20052;-75
2022/09/16 11:40:24;;;;;;;1.80;0.57;;;;;;;;;;5060284;28;20045;-75
2022/09/16 11:42:57;;;;;;;2.78;0.60;;;;;;;;;;5062078;28;20059;-75
2022/09/16 11:45:24;;;;;;;2.28;0.57;;;;;;;;;;5074499;28;20426;-75
2022/09/16 11:48:17;;;;;;;2.40;0.85;;;;;;;;;;5075089;28;20124;-75
2022/09/16 11:50:44;;;;;;;4.15;0.90;;;;;;;;;;5072064;28;20057;-75
2022/09/16 11:53:17;;;;;;;0.90;0.45;;;;;;;;;;5067971;28;20922;-75
2022/09/16 11:55:50;;;;;;;8.15;0.70;;;;;;;;;;5077220;28;20048;-76
2022/09/16 11:58:21;;;;;;;2.25;0.70;;;;;;;;;;5083119;28;20056;-75
2022/09/16 12:00:51;;;;;;;2.45;0.52;;;;;;;;;;5063866;28;20126;-75
2022/09/16 12:03:24;;;;;;;3.45;0.80;;;;;;;;;;5059651;28;20057;-75
2022/09/16 12:06:02;;;;;;;3.63;0.77;;;;;;;;;;5071199;28;20817;-75
2022/09/16 12:08:32;;;;;;;3.42;1.02;;;;;;;;;;5077580;28;20927;-75
2022/09/16 12:11:02;;;;;;;6.82;0.85;;;;;;;;;;5079287;28;20150;-74
2022/09/16 12:13:34;;;;;;;2.88;0.73;;;;;;;;;;5073337;28;20049;-75
2022/09/16 12:16:09;;;;;;;1.67;0.68;;;;;;;;;;5081404;28;20144;-75
2022/09/16 12:18:41;;;;;;;3.40;0.68;;;;;;;;;;5077569;28;20180;-75
2022/09/16 12:21:19;;;;;;;4.73;0.67;;;;;;;;;;5068719;28;20924;-75
2022/09/16 12:23:49;;;;;;;4.03;0.82;;;;;;;;;;5072863;28;20329;-74
2022/09/16 12:26:40;;;;;;;4.32;0.90;;;;;;;;;;5079431;28;20052;-74
2022/09/16 12:29:39;;;;;;;3.17;0.70;;;;;;;;;;5067465;28;20053;-75
2022/09/16 12:32:14;;;;;;;2.42;0.82;;;;;;;;;;5077468;28;20090;-74
2022/09/16 12:34:45;;;;;;;1.75;0.70;;;;;;;;;;5069664;28;21077;-74
2022/09/16 12:37:42;;;;;;;3.60;0.80;;;;;;;;;;5065721;28;20060;-74
2022/09/16 12:40:26;;;;;;;4.53;1.17;;;;;;;;;;5060378;28;20052;-74
2022/09/16 12:43:17;;;;;;;5.65;0.88;;;;;;;;;;5066132;28;20056;-74
2022/09/16 12:46:03;;;;;;;4.53;1.20;;;;;;;;;;5075667;28;20102;-73
2022/09/16 12:48:50;;;;;;;4.72;0.82;;;;;;;;;;5077240;28;20683;-74
2022/09/16 12:51:17;;;;;;;5.80;1.10;;;;;;;;;;5064814;28;20100;-75
2022/09/16 12:54:11;;;;;;;6.40;1.00;;;;;;;;;;5067086;28;20055;-75
2022/09/16 12:56:38;;;;;;;5.45;1.27;;;;;;;;;;5053034;28;20052;-75
2022/09/16 12:59:11;;;;;;;3.25;0.80;;;;;;;;;;5059670;28;20053;-74
2022/09/16 13:01:41;;;;;;;5.50;0.98;;;;;;;;;;5057879;28;20099;-75
2022/09/16 13:04:08;;;;;;;6.35;0.80;;;;;;;;;;5057395;28;20045;-75
2022/09/16 13:06:38;;;;;;;6.85;0.90;;;;;;;;;;5059337;28;20056;-75
2022/09/16 13:09:35;;;;;;;5.20;1.15;;;;;;;;;;5060816;28;20057;-74
2022/09/16 13:12:04;;;;;;;5.22;1.27;;;;;;;;;;5057577;28;20058;-75
2022/09/16 13:14:53;;;;;;;3.08;0.80;;;;;;;;;;5060111;28;20124;-74
2022/09/16 13:17:31;;;;;;;7.38;1.27;;;;;;;;;;5063199;28;20106;-74
2022/09/16 13:20:05;;;;;;;2.90;0.80;;;;;;;;;;5061854;28;20049;-75
2022/09/16 13:22:49;;;;;;;4.78;1.05;;;;;;;;;;5060399;28;20144;-74
2022/09/16 13:25:26;;;;;;;4.05;1.00;;;;;;;;;;5061248;28;20053;-75
2022/09/16 13:27:57;;;;;;;3.85;0.98;;;;;;;;;;5060595;28;20053;-75
2022/09/16 13:30:30;;;;;;;6.72;1.40;;;;;;;;;;5062656;28;20064;-75
2022/09/16 13:32:59;;;;;;;3.65;0.95;;;;;;;;;;5057643;28;20048;-76
2022/09/16 13:35:43;;;;;;;8.43;0.98;;;;;;;;;;5060177;28;20049;-75
2022/09/16 13:38:16;;;;;;;6.78;1.13;;;;;;;;;;5062430;28;20060;-74
2022/09/16 13:41:00;;;;;;;7.30;1.20;;;;;;;;;;5060045;28;20103;-74
2022/09/16 13:43:42;;;;;;;5.03;1.00;;;;;;;;;;5061582;28;20899;-75
2022/09/16 13:46:14;;;;;;;8.80;1.45;;;;;;;;;;5059961;28;20894;-74
2022/09/16 13:48:45;;;;;;;7.78;1.05;;;;;;;;;;5061964;28;22077;-74
2022/09/16 13:51:16;;;;;;;5.93;1.35;;;;;;;;;;5075945;28;20059;-75
2022/09/16 13:53:44;;;;;;;4.20;1.13;;;;;;;;;;5062246;28;20492;-74
2022/09/16 13:56:30;;;;;;;2.90;1.08;;;;;;;;;;5064242;28;20049;-76
2022/09/16 13:59:16;;;;;;;7.63;1.40;;;;;;;;;;5061429;28;20056;-75
2022/09/16 14:01:52;;;;;;;8.27;1.17;;;;;;;;;;5061026;28;20056;-75
2022/09/16 14:04:45;;;;;;;4.13;0.90;;;;;;;;;;5060430;28;20053;-74
2022/09/16 14:07:15;;;;;;;7.72;1.25;;;;;;;;;;5059511;28;20059;-74
2022/09/16 14:09:51;;;;;;;5.30;1.40;;;;;;;;;;5059141;28;20115;-74
2022/09/16 14:12:30;;;;;;;8.30;1.33;;;;;;;;;;5061291;28;20057;-75
2022/09/16 14:14:58;;;;;;;14.73;2.00;;;;;;;;;;5061772;28;20053;-74
2022/09/16 14:17:27;;;;;;;6.57;1.00;;;;;;;;;;5062848;28;20057;-74
2022/09/16 14:19:58;;;;;;;5.32;0.93;;;;;;;;;;5061508;28;20048;-74
2022/09/16 14:22:26;;;;;;;6.55;1.27;;;;;;;;;;5062418;28;20053;-74
2022/09/16 14:24:54;;;;;;;12.30;1.33;;;;;;;;;;5062734;28;20093;-74
2022/09/16 14:27:39;;;;;;;6.30;1.00;;;;;;;;;;5062688;28;20076;-73
2022/09/16 14:30:13;;;;;;;5.75;0.80;;;;;;;;;;5065131;28;20037;-74
2022/09/16 14:32:40;;;;;;;4.13;1.05;;;;;;;;;;5062707;28;20053;-75
2022/09/16 14:35:15;;;;;;;9.18;1.30;;;;;;;;;;5070181;28;20049;-74
2022/09/16 14:37:44;;;;;;;3.75;1.05;;;;;;;;;;5068002;28;20057;-74
2022/09/16 14:40:13;;;;;;;4.25;0.98;;;;;;;;;;5079663;28;20053;-74
2022/09/16 14:42:58;;;;;;;7.47;1.33;;;;;;;;;;5062953;28;20148;-74
2022/09/16 14:45:26;;;;;;;4.72;1.20;;;;;;;;;;5060655;28;20130;-74
2022/09/16 14:47:54;;;;;;;8.32;1.10;;;;;;;;;;5063437;28;20045;-74
2022/09/16 14:50:24;;;;;;;5.70;1.30;;;;;;;;;;5064137;28;20107;-74
2022/09/16 14:52:53;;;;;;;6.90;1.33;;;;;;;;;;5063952;28;20519;-74
2022/09/16 14:55:21;;;;;;;10.35;1.30;;;;;;;;;;5067235;28;20045;-75
2022/09/16 14:57:49;;;;;;;3.95;0.90;;;;;;;;;;5067229;28;20045;-73
2022/09/16 15:00:18;;;;;;;3.60;0.90;;;;;;;;;;5070110;28;20050;-74
2022/09/16 15:02:54;;;;;;;9.13;1.10;;;;;;;;;;5064072;28;20943;-74
2022/09/16 15:05:31;;;;;;;3.45;0.90;;;;;;;;;;5065857;28;20124;-74
2022/09/16 15:08:08;;;;;;;10.05;1.73;;;;;;;;;;5067861;28;20049;-74
2022/09/16 15:10:41;;;;;;;4.22;1.17;;;;;;;;;;5067447;28;20040;-74
2022/09/16 15:13:20;;;;;;;5.43;1.42;;;;;;;;;;5073152;28;20130;-75
2022/09/16 15:15:50;;;;;;;6.65;1.27;;;;;;;;;;5085317;28;20095;-74